Time;durP1;ratioP1;P1;durP2;ratioP2;P2;SDS_P1;SDS_P2;PMS_P1;PMS_P2;Temp;Humidity;BMP_temperature;BMP_pressure;BME280_temperature;BME280_humidity;BME280_pressure;Samples;Min_cycle;Max_cycle;Signal;HPM_P1;HPM_P2
2022/05/01 00:01:19;;;;;;;2.08;1.90;;;21.50;43.10;;;;;;4947502;28;20039;-59
2022/05/01 00:03:44;;;;;;;1.80;1.70;;;21.50;43.10;;;;;;4940411;28;20734;-60
2022/05/01 00:06:11;;;;;;;1.85;1.70;;;21.50;43.10;;;;;;4947249;28;20080;-59
2022/05/01 00:08:40;;;;;;;2.00;1.80;;;21.50;43.10;;;;;;4947105;29;20098;-59
2022/05/01 00:11:06;;;;;;;2.28;2.08;;;21.50;43.00;;;;;;4945751;29;20035;-59
2022/05/01 00:13:32;;;;;;;2.20;2.00;;;21.40;43.00;;;;;;4948038;28;20049;-59
2022/05/01 00:15:58;;;;;;;2.40;1.95;;;21.40;43.00;;;;;;4946771;29;20472;-60
2022/05/01 00:18:23;;;;;;;1.80;1.70;;;21.40;42.90;;;;;;4947071;28;20043;-59
2022/05/01 00:20:49;;;;;;;2.80;2.00;;;21.40;42.90;;;;;;4941313;28;20067;-58
2022/05/01 00:23:15;;;;;;;2.45;1.98;;;21.40;42.90;;;;;;4947992;28;20043;-59
2022/05/01 00:25:42;;;;;;;2.13;1.92;;;21.40;42.90;;;;;;4946470;28;20051;-60
2022/05/01 00:28:08;;;;;;;3.10;2.08;;;21.40;42.90;;;;;;4946366;28;20065;-59
2022/05/01 00:30:35;;;;;;;2.15;1.90;;;21.40;42.90;;;;;;4949714;29;20043;-59
2022/05/01 00:38:30;;;;;;;2.38;1.80;;;21.30;42.90;;;;;;4950438;29;20053;-60
2022/05/01 00:40:56;;;;;;;2.63;1.90;;;21.30;42.80;;;;;;4949765;29;20055;-63
2022/05/01 00:43:23;;;;;;;2.10;1.83;;;21.30;42.90;;;;;;4948591;28;20039;-59
2022/05/01 00:45:49;;;;;;;2.08;1.98;;;21.30;42.80;;;;;;4948202;29;20047;-60
2022/05/01 00:48:14;;;;;;;2.42;2.03;;;21.30;42.80;;;;;;4949554;28;20043;-60
2022/05/01 00:50:41;;;;;;;2.53;2.33;;;21.30;42.80;;;;;;4944512;28;20047;-60
2022/05/01 00:53:08;;;;;;;2.05;1.90;;;21.20;42.70;;;;;;4951410;28;20140;-59
2022/05/01 00:55:35;;;;;;;2.30;2.10;;;21.30;42.80;;;;;;4950853;28;20102;-58
2022/05/01 00:58:03;;;;;;;2.40;2.20;;;21.20;42.70;;;;;;4949812;29;20055;-60
2022/05/01 01:00:29;;;;;;;2.35;2.13;;;21.20;43.50;;;;;;4951396;29;20409;-61
2022/05/01 01:02:55;;;;;;;4.03;2.00;;;21.20;42.70;;;;;;4949617;29;20031;-60
2022/05/01 01:05:21;;;;;;;2.35;2.15;;;21.20;42.70;;;;;;4943797;28;20488;-60
2022/05/01 01:07:46;;;;;;;2.47;2.25;;;21.20;42.70;;;;;;4950833;28;20490;-60
2022/05/01 01:10:12;;;;;;;2.10;1.85;;;21.20;42.70;;;;;;4949449;29;20051;-59
2022/05/01 01:12:56;;;;;;;3.38;2.20;;;21.20;42.70;;;;;;4949476;29;20491;-61
2022/05/01 01:15:30;;;;;;;2.70;2.17;;;21.20;42.70;;;;;;4950532;28;20047;-60
2022/05/01 01:17:56;;;;;;;2.58;2.30;;;21.10;42.60;;;;;;4950730;29;20051;-59
2022/05/01 01:20:27;;;;;;;3.35;2.40;;;21.10;42.60;;;;;;4943238;28;20569;-59
2022/05/01 01:22:57;;;;;;;2.50;2.30;;;21.10;42.70;;;;;;4949719;28;20068;-59
2022/05/01 01:25:27;;;;;;;;;;;21.10;42.70;;;;;;4948961;28;20514;-61
2022/05/01 01:27:57;;;;;;;2.40;2.20;;;21.10;42.60;;;;;;4949342;29;19918;-62
2022/05/01 01:33:07;;;;;;;2.50;2.10;;;21.10;42.80;;;;;;4949027;29;20051;-61
2022/05/01 01:35:37;;;;;;;2.35;2.17;;;21.10;42.70;;;;;;4941436;28;20118;-61
2022/05/01 01:38:02;;;;;;;2.67;2.10;;;21.00;42.60;;;;;;4950001;29;20043;-61
2022/05/01 01:40:31;;;;;;;2.15;1.95;;;21.00;42.60;;;;;;4949907;28;20067;-60
2022/05/01 01:42:58;;;;;;;2.45;2.25;;;21.00;42.70;;;;;;4949513;28;20039;-59
2022/05/01 01:45:28;;;;;;;2.30;2.10;;;21.00;42.60;;;;;;4950267;28;20051;-60
2022/05/01 01:48:16;;;;;;;2.42;2.22;;;21.00;42.60;;;;;;4948941;29;20070;-60
2022/05/01 01:50:43;;;;;;;2.35;2.15;;;21.00;42.60;;;;;;4942325;28;20047;-59
2022/05/01 01:53:10;;;;;;;2.42;2.20;;;21.00;42.60;;;;;;4949170;29;20189;-62
2022/05/01 01:55:37;;;;;;;2.30;2.10;;;21.00;42.60;;;;;;4947715;29;20070;-60
2022/05/01 01:58:03;;;;;;;2.13;2.00;;;20.90;42.60;;;;;;4948518;29;20051;-59
2022/05/01 02:00:29;;;;;;;2.90;2.42;;;21.00;42.70;;;;;;4949081;28;20043;-60
2022/05/01 02:03:05;;;;;;;2.13;2.00;;;20.90;42.60;;;;;;4943277;28;20616;-59
2022/05/01 02:05:34;;;;;;;2.78;2.58;;;20.90;42.60;;;;;;4942366;28;20058;-60
2022/05/01 02:08:01;;;;;;;3.15;2.33;;;20.90;42.60;;;;;;4947496;29;20043;-59
2022/05/01 02:10:27;;;;;;;2.53;2.33;;;20.90;42.50;;;;;;4947473;29;20147;-60
2022/05/01 02:12:54;;;;;;;2.22;2.03;;;20.90;42.60;;;;;;4949239;29;20729;-62
2022/05/01 02:15:19;;;;;;;2.10;2.00;;;20.90;42.60;;;;;;4949403;29;20070;-58
2022/05/01 02:17:46;;;;;;;2.53;2.33;;;20.90;42.50;;;;;;4948090;28;20394;-60
2022/05/01 02:20:12;;;;;;;2.17;1.98;;;20.90;42.60;;;;;;4941670;28;21328;-60
2022/05/01 02:22:42;;;;;;;2.10;2.00;;;20.90;42.60;;;;;;4949280;28;20039;-59
2022/05/01 02:25:09;;;;;;;2.30;2.10;;;20.90;42.50;;;;;;4947735;29;20039;-60
2022/05/01 02:27:36;;;;;;;2.33;2.13;;;20.90;42.60;;;;;;4947395;29;20232;-59
2022/05/01 02:30:02;;;;;;;2.40;2.20;;;20.80;42.50;;;;;;4946469;29;20047;-62
2022/05/01 02:32:29;;;;;;;2.42;2.22;;;20.90;42.60;;;;;;4945977;28;20077;-60
2022/05/01 02:34:55;;;;;;;2.60;2.40;;;20.90;42.60;;;;;;4946551;28;20051;-59
2022/05/01 02:37:20;;;;;;;3.55;2.25;;;20.80;42.50;;;;;;4941843;29;20042;-61
2022/05/01 02:39:46;;;;;;;2.58;2.38;;;20.80;42.50;;;;;;4943829;29;20040;-59
2022/05/01 02:42:11;;;;;;;2.63;2.42;;;20.80;42.50;;;;;;4944884;29;20744;-61
2022/05/01 02:44:38;;;;;;;3.08;2.25;;;20.80;42.50;;;;;;4944002;28;20576;-61
2022/05/01 02:47:05;;;;;;;2.60;2.40;;;20.80;42.50;;;;;;4944958;28;20043;-59
2022/05/01 02:49:31;;;;;;;2.28;2.00;;;20.80;42.50;;;;;;4947062;29;20110;-61
2022/05/01 02:51:56;;;;;;;2.83;2.45;;;20.80;42.50;;;;;;4941097;28;20151;-59
2022/05/01 02:54:22;;;;;;;3.20;2.60;;;20.80;42.50;;;;;;4948765;28;20090;-60
2022/05/01 02:56:49;;;;;;;2.35;2.15;;;20.80;42.50;;;;;;4948759;28;20070;-59
2022/05/01 02:59:16;;;;;;;3.78;2.50;;;20.80;42.50;;;;;;4948123;29;20661;-59
2022/05/01 03:01:43;;;;;;;2.70;2.50;;;20.80;42.50;;;;;;4947393;28;20089;-63
2022/05/01 03:04:08;;;;;;;2.45;2.25;;;20.80;42.50;;;;;;4947560;29;20066;-60
2022/05/01 03:06:34;;;;;;;2.72;2.53;;;20.70;42.50;;;;;;4941161;28;20051;-60
2022/05/01 03:09:00;;;;;;;2.50;2.28;;;20.80;42.50;;;;;;4947910;28;20394;-59
2022/05/01 03:11:26;;;;;;;2.38;2.17;;;20.80;42.60;;;;;;4948102;28;20415;-60
2022/05/01 03:13:52;;;;;;;2.50;2.30;;;20.70;42.50;;;;;;4946925;29;20059;-61
2022/05/01 03:16:17;;;;;;;2.67;2.38;;;20.70;42.50;;;;;;4947515;28;20145;-59
2022/05/01 03:24:11;;;;;;;3.17;2.35;;;20.70;42.50;;;;;;4947496;29;20535;-60
2022/05/01 03:26:37;;;;;;;2.85;2.40;;;20.70;42.50;;;;;;4947354;28;20137;-60
2022/05/01 03:29:03;;;;;;;2.47;2.10;;;20.60;42.50;;;;;;4947170;28;20380;-60
2022/05/01 03:31:28;;;;;;;2.88;2.50;;;20.70;42.50;;;;;;4947172;29;20074;-59
2022/05/01 03:33:54;;;;;;;2.38;2.17;;;20.60;42.40;;;;;;4946024;28;20063;-60
2022/05/01 03:36:20;;;;;;;2.40;2.25;;;20.60;42.50;;;;;;4940378;28;20039;-60
2022/05/01 03:38:46;;;;;;;4.10;2.50;;;20.70;42.50;;;;;;4948049;28;20051;-59
2022/05/01 03:41:16;;;;;;;2.28;2.13;;;20.60;42.40;;;;;;4946859;28;20055;-60
2022/05/01 03:43:42;;;;;;;2.70;2.50;;;20.60;42.50;;;;;;4947598;28;20043;-59
2022/05/01 03:46:08;;;;;;;2.80;2.30;;;20.60;42.40;;;;;;4946888;29;20104;-60
2022/05/01 03:48:34;;;;;;;2.20;2.10;;;20.60;42.50;;;;;;4945061;28;20036;-60
2022/05/01 03:51:00;;;;;;;2.40;2.20;;;20.60;42.50;;;;;;4941071;28;20054;-61
2022/05/01 03:53:25;;;;;;;2.80;2.60;;;20.60;42.40;;;;;;4948216;28;20039;-60
2022/05/01 03:55:51;;;;;;;2.58;2.35;;;20.60;42.50;;;;;;4947056;28;20199;-60
2022/05/01 03:58:18;;;;;;;2.13;2.00;;;20.60;42.40;;;;;;4946890;28;20035;-58
2022/05/01 04:00:47;;;;;;;2.70;2.50;;;20.60;42.40;;;;;;4945019;28;20495;-61
2022/05/01 04:03:15;;;;;;;2.63;2.35;;;20.60;42.50;;;;;;4943343;28;20684;-61
2022/05/01 04:05:41;;;;;;;3.42;2.67;;;20.60;42.40;;;;;;4944295;28;20430;-59
2022/05/01 04:08:08;;;;;;;2.60;2.40;;;20.60;42.50;;;;;;4941253;28;20141;-58
2022/05/01 04:10:40;;;;;;;2.60;2.40;;;20.60;42.50;;;;;;4947600;29;20069;-59
2022/05/01 04:13:06;;;;;;;2.95;2.65;;;20.50;42.40;;;;;;4946933;29;20074;-60
2022/05/01 04:15:32;;;;;;;2.90;2.70;;;20.50;42.40;;;;;;4947104;28;20476;-60
2022/05/01 04:17:58;;;;;;;2.92;2.63;;;20.50;42.40;;;;;;4946877;28;20039;-59
2022/05/01 04:20:25;;;;;;;2.60;2.40;;;20.50;42.50;;;;;;4943424;28;20074;-60
2022/05/01 04:22:51;;;;;;;2.55;2.35;;;20.50;42.40;;;;;;4939944;28;20444;-59
2022/05/01 04:25:21;;;;;;;2.60;2.40;;;20.50;42.40;;;;;;4944642;29;20035;-58
2022/05/01 04:27:48;;;;;;;2.78;2.45;;;20.50;42.40;;;;;;4946895;29;20499;-59
2022/05/01 04:30:16;;;;;;;2.45;2.20;;;20.50;42.40;;;;;;4947073;28;20062;-59
2022/05/01 04:32:56;;;;;;;2.60;2.40;;;20.50;42.40;;;;;;4939486;28;20179;-58
2022/05/01 04:35:37;;;;;;;3.03;2.60;;;20.50;42.40;;;;;;4946828;28;20523;-61
2022/05/01 04:38:05;;;;;;;3.78;2.65;;;20.50;42.40;;;;;;4938437;29;20047;-60
2022/05/01 04:40:38;;;;;;;2.78;2.58;;;20.50;42.50;;;;;;4947051;29;20042;-61
2022/05/01 04:43:09;;;;;;;2.60;2.30;;;20.50;42.40;;;;;;4945745;29;20031;-60
2022/05/01 04:45:36;;;;;;;2.53;2.33;;;20.50;42.50;;;;;;4947490;29;20050;-58
2022/05/01 04:48:03;;;;;;;3.53;2.28;;;20.50;42.40;;;;;;4945716;28;20122;-59
2022/05/01 04:50:29;;;;;;;2.75;2.55;;;20.50;42.50;;;;;;4946076;28;20054;-60
2022/05/01 04:52:55;;;;;;;2.47;2.28;;;20.40;42.40;;;;;;4940215;28;20035;-60
2022/05/01 04:55:21;;;;;;;2.92;2.70;;;20.50;42.40;;;;;;4947074;28;20080;-58
2022/05/01 04:57:46;;;;;;;2.80;2.53;;;20.50;42.40;;;;;;4948189;28;20046;-59
2022/05/01 05:00:13;;;;;;;3.63;2.65;;;20.40;42.40;;;;;;4943336;29;20047;-59
2022/05/01 05:02:41;;;;;;;3.10;2.80;;;20.40;42.40;;;;;;4945385;28;20101;-59
2022/05/01 05:05:10;;;;;;;2.90;2.45;;;20.40;42.40;;;;;;4947411;29;20442;-59
2022/05/01 05:07:36;;;;;;;2.65;2.45;;;20.40;42.40;;;;;;4940183;28;20042;-58
2022/05/01 05:10:03;;;;;;;2.70;2.50;;;20.40;42.40;;;;;;4947078;28;20073;-58
2022/05/01 05:12:29;;;;;;;2.80;2.42;;;20.40;42.40;;;;;;4947147;29;20051;-60
2022/05/01 05:14:59;;;;;;;3.05;2.58;;;20.40;42.40;;;;;;4944956;28;20043;-59
2022/05/01 05:17:25;;;;;;;3.25;2.67;;;20.40;42.40;;;;;;4949827;28;20035;-58
2022/05/01 05:19:51;;;;;;;2.83;2.63;;;20.40;42.40;;;;;;4949420;29;20487;-60
2022/05/01 05:22:16;;;;;;;2.92;2.30;;;20.40;42.40;;;;;;4944382;28;20042;-59
2022/05/01 05:24:42;;;;;;;3.08;2.88;;;20.40;42.40;;;;;;4950602;28;20560;-60
2022/05/01 05:27:08;;;;;;;3.03;2.60;;;20.40;42.40;;;;;;4950559;28;20051;-60
2022/05/01 05:29:33;;;;;;;2.97;2.70;;;20.40;42.40;;;;;;4945744;28;20039;-61
2022/05/01 05:31:59;;;;;;;2.80;2.60;;;20.40;42.40;;;;;;4949649;28;20078;-61
2022/05/01 05:34:25;;;;;;;4.07;2.90;;;20.40;42.40;;;;;;4948574;28;20070;-59
2022/05/01 05:36:51;;;;;;;2.60;2.40;;;20.40;42.40;;;;;;4946393;28;20043;-62
2022/05/01 05:39:16;;;;;;;2.80;2.60;;;20.40;42.50;;;;;;4948888;28;20392;-58
2022/05/01 05:41:42;;;;;;;2.42;2.25;;;20.40;42.40;;;;;;4950682;28;20043;-61
2022/05/01 05:44:08;;;;;;;2.92;2.72;;;20.40;42.40;;;;;;4953375;28;20511;-58
2022/05/01 05:46:34;;;;;;;2.67;2.17;;;20.40;42.40;;;;;;4947538;28;20039;-59
2022/05/01 05:49:00;;;;;;;3.47;3.17;;;20.40;42.50;;;;;;4949985;28;20466;-60
2022/05/01 05:51:25;;;;;;;2.63;2.42;;;20.40;42.50;;;;;;4950476;28;20151;-59
2022/05/01 05:53:52;;;;;;;2.70;2.50;;;20.40;42.50;;;;;;4942149;29;22029;-59
2022/05/01 05:56:19;;;;;;;3.65;2.85;;;20.30;42.40;;;;;;4950438;28;20050;-60
2022/05/01 05:58:45;;;;;;;3.70;2.65;;;20.30;42.40;;;;;;4948728;28;20035;-59
2022/05/01 06:01:11;;;;;;;2.80;2.60;;;20.30;42.50;;;;;;4948635;28;20581;-61
2022/05/01 06:03:37;;;;;;;2.97;2.78;;;20.30;42.40;;;;;;4949334;28;20043;-59
2022/05/01 06:06:03;;;;;;;2.85;2.63;;;20.30;42.50;;;;;;4949294;28;20039;-60
2022/05/01 06:08:29;;;;;;;2.97;2.70;;;20.30;42.50;;;;;;4943732;29;20075;-62
2022/05/01 06:10:55;;;;;;;3.17;2.53;;;20.30;42.50;;;;;;4949175;28;20071;-60
2022/05/01 06:13:20;;;;;;;2.97;2.60;;;20.30;42.40;;;;;;4948911;28;20048;-60
2022/05/01 06:15:47;;;;;;;2.53;2.33;;;20.30;42.50;;;;;;4948041;28;20075;-59
2022/05/01 06:18:13;;;;;;;3.47;2.50;;;20.30;42.50;;;;;;4947647;28;20054;-60
2022/05/01 06:20:39;;;;;;;3.72;2.75;;;20.30;42.50;;;;;;4948026;28;20146;-60
2022/05/01 06:23:05;;;;;;;2.78;2.58;;;20.30;42.50;;;;;;4942725;28;20034;-60
2022/05/01 06:25:30;;;;;;;3.63;2.50;;;20.30;42.50;;;;;;4949099;28;20051;-61
2022/05/01 06:27:56;;;;;;;2.88;2.67;;;20.20;42.40;;;;;;4947550;28;20046;-59
2022/05/01 06:30:22;;;;;;;2.60;2.40;;;20.30;42.50;;;;;;4948144;28;20491;-58
2022/05/01 06:32:48;;;;;;;2.97;2.67;;;20.30;42.50;;;;;;4947076;28;20047;-59
2022/05/01 06:35:15;;;;;;;2.83;2.50;;;20.30;42.40;;;;;;4949439;29;20400;-62
2022/05/01 06:37:41;;;;;;;2.35;2.25;;;20.30;42.50;;;;;;4942191;28;20059;-61
2022/05/01 06:40:07;;;;;;;2.70;2.50;;;20.20;42.50;;;;;;4946468;28;20416;-59
2022/05/01 06:42:34;;;;;;;4.43;2.42;;;20.30;42.40;;;;;;4938837;28;20403;-59
2022/05/01 06:44:59;;;;;;;8.82;2.97;;;20.30;42.50;;;;;;4943738;29;20047;-60
2022/05/01 06:47:25;;;;;;;2.92;2.53;;;20.20;42.30;;;;;;4935758;28;20102;-59
2022/05/01 06:49:51;;;;;;;4.45;2.72;;;20.20;42.20;;;;;;4946143;28;20066;-62
2022/05/01 06:52:23;;;;;;;4.70;2.80;;;20.20;42.30;;;;;;4948130;28;20178;-63
2022/05/01 06:54:50;;;;;;;4.88;2.90;;;20.20;42.30;;;;;;4946079;28;20038;-58
2022/05/01 06:57:16;;;;;;;5.47;2.85;;;20.20;42.30;;;;;;4946660;29;20403;-59
2022/05/01 06:59:41;;;;;;;5.63;2.63;;;20.20;42.50;;;;;;4946703;28;20046;-60
2022/05/01 07:02:07;;;;;;;2.45;2.28;;;20.20;42.60;;;;;;4944372;29;21780;-58
2022/05/01 07:04:33;;;;;;;7.45;2.70;;;20.20;42.90;;;;;;4940332;29;20439;-59
2022/05/01 07:06:59;;;;;;;4.10;2.60;;;20.20;42.60;;;;;;4945351;29;20050;-60
2022/05/01 07:09:24;;;;;;;3.20;2.50;;;20.20;42.70;;;;;;4947331;29;20050;-57
2022/05/01 07:11:50;;;;;;;3.45;2.70;;;20.20;42.70;;;;;;4950702;28;20054;-59
2022/05/01 07:14:15;;;;;;;3.10;2.80;;;20.20;42.80;;;;;;4946882;28;20047;-58
2022/05/01 07:16:41;;;;;;;2.90;2.40;;;20.20;43.00;;;;;;4945857;28;20046;-60
2022/05/01 07:19:06;;;;;;;4.13;2.60;;;20.30;43.10;;;;;;4945930;28;20391;-58
2022/05/01 07:21:32;;;;;;;4.70;2.83;;;20.30;43.20;;;;;;4943989;28;20968;-58
2022/05/01 07:23:58;;;;;;;9.48;2.97;;;20.30;43.20;;;;;;4944863;28;20636;-59
2022/05/01 07:26:25;;;;;;;4.55;2.88;;;20.30;43.30;;;;;;4943962;29;20066;-58
2022/05/01 07:28:51;;;;;;;3.70;2.55;;;20.30;43.40;;;;;;4945684;28;20432;-59
2022/05/01 07:31:16;;;;;;;4.07;2.47;;;20.30;43.30;;;;;;4944829;28;20042;-58
2022/05/01 07:33:42;;;;;;;3.33;2.65;;;20.30;43.30;;;;;;4944710;28;20575;-58
2022/05/01 07:36:08;;;;;;;3.70;2.47;;;20.30;43.40;;;;;;4944181;28;20056;-58
2022/05/01 07:38:33;;;;;;;2.63;2.38;;;20.30;43.30;;;;;;4943461;28;20408;-58
2022/05/01 07:40:59;;;;;;;2.20;2.00;;;20.30;43.30;;;;;;4944751;28;20039;-58
2022/05/01 07:43:24;;;;;;;2.53;2.30;;;20.30;43.30;;;;;;4945406;28;20520;-58
2022/05/01 07:45:50;;;;;;;4.47;2.42;;;20.30;43.40;;;;;;4944905;28;20042;-59
2022/05/01 07:48:15;;;;;;;3.20;2.40;;;20.40;43.60;;;;;;4944791;28;20090;-59
2022/05/01 07:50:41;;;;;;;3.70;2.80;;;20.30;43.50;;;;;;4945585;28;20043;-60
2022/05/01 07:53:07;;;;;;;6.13;2.90;;;20.30;43.50;;;;;;4945460;29;20122;-58
2022/05/01 07:55:33;;;;;;;6.22;2.88;;;20.40;43.70;;;;;;4945624;28;20062;-58
2022/05/01 07:57:58;;;;;;;4.10;2.78;;;20.40;43.80;;;;;;4945949;28;20103;-57
2022/05/01 08:00:24;;;;;;;3.13;2.60;;;20.40;43.70;;;;;;4945107;29;20044;-58
2022/05/01 08:05:34;;;;;;;2.72;2.53;;;20.40;43.80;;;;;;4945144;29;20117;-59
2022/05/01 08:08:00;;;;;;;5.82;2.83;;;20.40;43.80;;;;;;4945105;28;20790;-61
2022/05/01 08:10:25;;;;;;;3.35;2.63;;;20.30;44.00;;;;;;4944674;28;20054;-59
2022/05/01 08:12:51;;;;;;;3.53;2.60;;;20.40;44.00;;;;;;4945697;28;20476;-59
2022/05/01 08:15:18;;;;;;;4.28;2.47;;;20.40;44.70;;;;;;4938237;28;20043;-61
2022/05/01 08:17:45;;;;;;;3.72;2.97;;;20.40;44.00;;;;;;4943629;28;20047;-58
2022/05/01 08:23:06;;;;;;;10.00;2.70;;;20.40;44.70;;;;;;4942969;29;20059;-59
2022/05/01 08:25:32;;;;;;;4.88;2.60;;;20.40;43.90;;;;;;4945471;28;20034;-58
2022/05/01 08:27:58;;;;;;;3.42;2.58;;;20.30;43.90;;;;;;4944407;28;20047;-64
2022/05/01 08:30:24;;;;;;;4.35;2.80;;;20.30;43.90;;;;;;4946533;29;20046;-63
2022/05/01 08:32:49;;;;;;;3.70;2.53;;;20.30;43.90;;;;;;4945657;29;20511;-64
2022/05/01 08:35:15;;;;;;;3.17;2.80;;;20.30;44.00;;;;;;4945488;28;20740;-61
2022/05/01 08:37:40;;;;;;;5.30;2.53;;;20.30;44.00;;;;;;4947752;28;20043;-60
2022/05/01 08:40:07;;;;;;;5.07;2.90;;;20.30;44.20;;;;;;4944748;29;20044;-61
2022/05/01 08:42:36;;;;;;;4.13;2.67;;;20.30;44.40;;;;;;4944577;29;20039;-61
2022/05/01 08:45:09;;;;;;;4.95;2.70;;;20.40;44.70;;;;;;4946351;29;20043;-61
2022/05/01 08:47:38;;;;;;;4.53;2.63;;;20.40;44.90;;;;;;4945808;29;20050;-60
2022/05/01 08:50:07;;;;;;;6.43;2.90;;;20.40;45.00;;;;;;4945640;28;20067;-62
2022/05/01 08:52:35;;;;;;;3.03;2.70;;;20.40;45.00;;;;;;4949730;29;20090;-61
2022/05/01 08:55:04;;;;;;;12.98;2.78;;;20.30;45.00;;;;;;4949190;29;20499;-61
2022/05/01 08:57:33;;;;;;;3.72;2.60;;;20.40;45.00;;;;;;4949885;29;20043;-60
2022/05/01 08:59:58;;;;;;;2.83;2.55;;;20.40;44.90;;;;;;4948536;29;20045;-60
2022/05/01 09:02:25;;;;;;;3.25;2.25;;;20.30;45.00;;;;;;4949077;28;20043;-60
2022/05/01 09:04:50;;;;;;;7.15;2.20;;;20.40;44.90;;;;;;4948773;29;20066;-60
2022/05/01 09:07:16;;;;;;;3.60;2.38;;;20.40;44.90;;;;;;4950121;29;20043;-60
2022/05/01 09:09:41;;;;;;;3.90;2.00;;;20.40;45.00;;;;;;4948895;28;20070;-60
2022/05/01 09:14:52;;;;;;;3.75;1.90;;;20.40;45.00;;;;;;4950149;28;20051;-61
2022/05/01 09:17:21;;;;;;;6.72;2.25;;;20.50;45.10;;;;;;4948708;29;20062;-61
2022/05/01 09:19:49;;;;;;;3.45;2.05;;;20.50;45.30;;;;;;4949227;29;20481;-60
2022/05/01 09:22:16;;;;;;;7.22;2.65;;;20.50;45.30;;;;;;4949257;28;20057;-60
2022/05/01 09:24:41;;;;;;;3.25;1.92;;;20.50;45.50;;;;;;4946539;28;20910;-60
2022/05/01 09:27:32;;;;;;;2.92;1.95;;;20.50;45.50;;;;;;4947294;29;20117;-60
2022/05/01 09:30:11;;;;;;;;;;;20.50;45.70;;;;;;4948451;29;20046;-59
2022/05/01 09:32:39;;;;;;;3.95;2.17;;;20.50;45.80;;;;;;4947615;28;19931;-59
2022/05/01 09:35:25;;;;;;;2.28;1.92;;;20.50;45.60;;;;;;4949653;28;20173;-61
2022/05/01 09:38:08;;;;;;;3.25;2.08;;;20.50;45.50;;;;;;4948105;29;20154;-60
2022/05/01 09:40:34;;;;;;;3.03;1.98;;;20.50;45.40;;;;;;4947364;29;20083;-61
2022/05/01 09:42:59;;;;;;;4.43;2.00;;;20.40;45.30;;;;;;4948202;29;20067;-59
2022/05/01 09:45:32;;;;;;;3.10;2.00;;;20.50;45.20;;;;;;4948190;28;20490;-59
2022/05/01 09:47:58;;;;;;;2.40;2.17;;;20.50;45.10;;;;;;4945078;29;20043;-60
2022/05/01 09:50:41;;;;;;;8.40;2.97;;;20.50;45.20;;;;;;4947558;28;20167;-59
2022/05/01 09:53:06;;;;;;;3.08;2.75;;;20.40;45.00;;;;;;4947800;29;20039;-61
2022/05/01 09:55:32;;;;;;;4.00;3.70;;;20.40;44.70;;;;;;4948028;28;20051;-62
2022/05/01 09:58:12;;;;;;;5.32;3.17;;;20.40;43.70;;;;;;4942769;28;20113;-63
2022/05/01 10:00:46;;;;;;;4.20;3.13;;;20.40;43.70;;;;;;4949458;29;20035;-61
2022/05/01 10:03:22;;;;;;;4.60;3.03;;;20.40;43.90;;;;;;4947593;28;20089;-63
2022/05/01 10:05:49;;;;;;;7.20;4.55;;;20.40;44.10;;;;;;4947894;29;20083;-63
2022/05/01 10:08:16;;;;;;;5.13;2.88;;;20.40;43.60;;;;;;4946598;28;20054;-63
2022/05/01 10:10:43;;;;;;;4.05;2.92;;;20.40;43.60;;;;;;4947556;28;20062;-64
2022/05/01 10:13:10;;;;;;;5.45;3.70;;;20.40;43.20;;;;;;4946956;28;20530;-62
2022/05/01 10:15:35;;;;;;;3.70;3.40;;;20.40;42.70;;;;;;4946952;29;20043;-63
2022/05/01 10:18:02;;;;;;;4.60;3.38;;;20.40;42.20;;;;;;4947019;29;20046;-65
2022/05/01 10:20:28;;;;;;;4.03;3.63;;;20.30;42.10;;;;;;4946637;29;20062;-63
2022/05/01 10:22:55;;;;;;;5.03;2.90;;;20.30;42.00;;;;;;4942026;29;20493;-63
2022/05/01 10:25:21;;;;;;;7.13;2.97;;;20.30;42.30;;;;;;4947128;29;20046;-63
2022/05/01 10:28:03;;;;;;;7.15;2.83;;;20.30;42.40;;;;;;4944718;28;20046;-63
2022/05/01 10:33:39;;;;;;;3.88;3.03;;;20.30;42.50;;;;;;4945533;29;20550;-63
2022/05/01 10:36:05;;;;;;;5.43;4.80;;;20.30;42.50;;;;;;4945447;29;20047;-63
2022/05/01 10:38:57;;;;;;;6.30;4.45;;;20.30;40.50;;;;;;4946966;29;20155;-63
2022/05/01 10:41:23;;;;;;;4.95;3.80;;;20.20;39.30;;;;;;4945285;29;20047;-63
2022/05/01 10:43:56;;;;;;;3.72;3.13;;;20.10;39.40;;;;;;4942962;28;20166;-63
2022/05/01 10:46:21;;;;;;;5.68;3.53;;;20.10;39.50;;;;;;4945301;28;20039;-63
2022/05/01 10:48:48;;;;;;;5.57;3.13;;;20.10;40.00;;;;;;4944113;28;20046;-63
2022/05/01 10:51:34;;;;;;;2.95;2.75;;;20.20;40.50;;;;;;4945223;28;20089;-63
2022/05/01 10:54:17;;;;;;;3.25;2.60;;;20.10;40.60;;;;;;4944856;28;20043;-62
2022/05/01 10:56:45;;;;;;;4.82;2.67;;;20.20;40.70;;;;;;4946553;28;20435;-63
2022/05/01 10:59:29;;;;;;;3.15;2.80;;;20.20;40.80;;;;;;4945964;28;20054;-63
2022/05/01 11:01:59;;;;;;;6.30;2.30;;;20.20;40.90;;;;;;4947280;29;20051;-62
2022/05/01 11:04:25;;;;;;;3.47;2.50;;;20.20;41.10;;;;;;4947046;28;20047;-62
2022/05/01 11:06:53;;;;;;;3.88;2.40;;;20.20;41.30;;;;;;4945781;29;20507;-63
2022/05/01 11:09:25;;;;;;;4.32;2.60;;;20.20;41.20;;;;;;4944025;28;20512;-63
2022/05/01 11:11:56;;;;;;;3.65;2.35;;;20.20;41.40;;;;;;4946152;29;20031;-63
2022/05/01 11:15:14;;;;;;;2.85;2.55;;;20.20;41.40;;;;;;4944901;28;20075;-62
2022/05/01 11:17:39;;;;;;;3.55;2.17;;;20.30;41.50;;;;;;4926968;28;20055;-62
2022/05/01 11:20:22;;;;;;;4.13;2.20;;;20.20;41.50;;;;;;4945505;28;20348;-63
2022/05/01 11:22:48;;;;;;;2.15;1.95;;;20.20;41.50;;;;;;4946401;28;20039;-62
2022/05/01 11:25:33;;;;;;;3.00;2.13;;;20.30;41.60;;;;;;4943741;29;20043;-63
2022/05/01 11:27:59;;;;;;;2.90;2.03;;;20.20;41.50;;;;;;4927666;28;20203;-64
2022/05/01 11:30:29;;;;;;;5.50;2.50;;;20.20;41.60;;;;;;4943125;28;20091;-62
2022/05/01 11:33:01;;;;;;;2.53;2.17;;;20.30;41.60;;;;;;4942785;28;20455;-62
2022/05/01 11:35:58;;;;;;;10.52;2.42;;;20.20;41.50;;;;;;4942158;29;20058;-62
2022/05/01 11:38:33;;;;;;;3.65;2.10;;;20.20;41.90;;;;;;4942539;28;20050;-62
2022/05/01 11:41:02;;;;;;;4.88;2.25;;;20.20;42.00;;;;;;4942614;28;20049;-62
2022/05/01 11:43:30;;;;;;;7.53;2.20;;;20.20;41.90;;;;;;4945332;28;20073;-62
2022/05/01 11:45:57;;;;;;;4.30;2.63;;;20.20;41.90;;;;;;4944767;28;20050;-62
2022/05/01 11:48:23;;;;;;;3.92;2.10;;;20.20;41.90;;;;;;4944687;28;20069;-62
2022/05/01 11:50:51;;;;;;;4.35;2.40;;;20.20;41.80;;;;;;4944332;28;20047;-62
2022/05/01 11:53:27;;;;;;;2.13;1.90;;;20.20;41.90;;;;;;4943101;28;20035;-62
2022/05/01 12:04:30;;;;;;;2.92;2.10;;;20.20;42.00;;;;;;4945078;28;20110;-62
2022/05/01 12:07:04;;;;;;;4.05;1.85;;;20.20;42.00;;;;;;4943482;29;20047;-64
2022/05/01 12:09:31;;;;;;;3.45;2.10;;;20.20;41.90;;;;;;4944321;29;20050;-62
2022/05/01 12:11:57;;;;;;;2.20;2.00;;;20.20;41.80;;;;;;4948312;28;20117;-64
2022/05/01 12:14:23;;;;;;;2.95;1.90;;;20.20;41.90;;;;;;4945362;29;20082;-63
2022/05/01 12:16:48;;;;;;;2.97;2.10;;;20.10;41.90;;;;;;4944951;28;20085;-64
2022/05/01 12:19:15;;;;;;;2.15;1.80;;;20.20;41.80;;;;;;4944917;29;20050;-63
2022/05/01 12:21:41;;;;;;;4.07;1.80;;;20.20;41.90;;;;;;4944080;28;20400;-63
2022/05/01 12:24:09;;;;;;;3.25;2.20;;;20.20;41.80;;;;;;4945357;28;20047;-64
2022/05/01 12:26:47;;;;;;;3.53;2.17;;;20.10;41.70;;;;;;4947993;28;20439;-63
2022/05/01 12:29:13;;;;;;;2.20;1.98;;;20.20;41.70;;;;;;4947457;29;20260;-63
2022/05/01 12:31:59;;;;;;;3.58;2.00;;;20.20;41.80;;;;;;4946419;28;20070;-62
2022/05/01 12:34:26;;;;;;;1.90;1.80;;;20.20;41.80;;;;;;4946834;29;20063;-64
2022/05/01 12:37:01;;;;;;;2.30;2.10;;;20.20;41.80;;;;;;4945946;29;20046;-64
2022/05/01 12:39:27;;;;;;;2.97;1.90;;;20.20;41.90;;;;;;4948480;28;20440;-64
2022/05/01 12:45:17;;;;;;;1.92;1.77;;;20.20;41.80;;;;;;4944988;28;20098;-63
2022/05/01 12:47:51;;;;;;;3.05;2.30;;;20.20;41.90;;;;;;4935890;28;20066;-63
2022/05/01 12:50:19;;;;;;;5.55;2.10;;;20.20;42.30;;;;;;4944258;28;20726;-63
2022/05/01 12:52:50;;;;;;;2.75;2.00;;;20.20;42.50;;;;;;4944147;28;20459;-64
2022/05/01 12:55:18;;;;;;;2.42;2.20;;;20.20;42.70;;;;;;4945380;28;20036;-62
2022/05/01 12:57:57;;;;;;;2.95;1.80;;;20.30;42.80;;;;;;4943004;28;20043;-62
2022/05/01 13:00:34;;;;;;;1.73;1.60;;;20.30;42.90;;;;;;4943678;29;20094;-63
2022/05/01 13:03:15;;;;;;;2.15;1.85;;;20.20;42.80;;;;;;4942529;28;20058;-62
2022/05/01 13:05:41;;;;;;;2.07;1.60;;;20.30;42.90;;;;;;4944090;29;20042;-62
2022/05/01 13:08:20;;;;;;;2.17;1.80;;;20.30;42.90;;;;;;4945025;29;20082;-62
2022/05/01 13:11:07;;;;;;;4.07;1.70;;;20.30;42.90;;;;;;4945669;29;20049;-62
2022/05/01 13:13:50;;;;;;;3.28;1.70;;;20.30;43.00;;;;;;4943974;29;20562;-63
2022/05/01 13:16:19;;;;;;;1.98;1.80;;;20.30;43.00;;;;;;4939875;28;20918;-63
2022/05/01 13:18:45;;;;;;;3.08;1.90;;;20.30;43.00;;;;;;4945267;29;20404;-63
2022/05/01 13:21:11;;;;;;;2.33;1.88;;;20.30;43.10;;;;;;4947827;28;20419;-63
2022/05/01 13:23:41;;;;;;;2.33;1.95;;;20.30;43.00;;;;;;4945884;28;20051;-62
2022/05/01 13:26:06;;;;;;;2.70;1.97;;;20.30;43.00;;;;;;4946678;29;20488;-62
2022/05/01 13:28:32;;;;;;;4.88;1.90;;;20.30;43.00;;;;;;4944880;28;20153;-63
2022/05/01 13:30:57;;;;;;;4.63;2.00;;;20.30;43.20;;;;;;4945911;28;21086;-62